createdAt,value
2019-04-05T00:01:27.522Z,18.03
2019-04-05T00:03:55.887Z,15.97
2019-04-05T00:06:24.171Z,14.50
2019-04-05T00:08:52.466Z,16.73
2019-04-05T00:11:20.762Z,15.10
2019-04-05T00:13:49.991Z,14.77
2019-04-05T00:16:18.284Z,17.70
2019-04-05T00:18:46.570Z,15.00
2019-04-05T00:21:14.853Z,16.43
2019-04-05T00:23:43.146Z,18.03
2019-04-05T00:26:11.439Z,17.53
2019-04-05T00:28:39.742Z,17.33
2019-04-05T00:31:08.026Z,17.47
2019-04-05T00:33:36.329Z,16.13
2019-04-05T00:36:04.781Z,17.63
2019-04-05T00:38:33.059Z,19.00
2019-04-05T00:41:01.358Z,16.97
2019-04-05T00:43:29.649Z,18.67
2019-04-05T00:45:57.942Z,16.13
2019-04-05T00:48:26.232Z,17.07
2019-04-05T00:50:54.569Z,16.33
2019-04-05T00:53:22.849Z,16.47
2019-04-05T00:55:51.148Z,15.30
2019-04-05T00:58:19.432Z,15.53
2019-04-05T01:00:47.733Z,14.87
2019-04-05T01:03:16.017Z,15.43
2019-04-05T01:05:44.334Z,14.93
2019-04-05T01:08:12.722Z,17.47
2019-04-05T01:10:41.078Z,18.00
2019-04-05T01:13:09.378Z,16.60
2019-04-05T01:15:41.009Z,16.57
2019-04-05T01:18:07.696Z,15.07
2019-04-05T01:20:40.211Z,16.93
2019-04-05T01:23:08.586Z,16.67
2019-04-05T01:25:36.935Z,16.80
2019-04-05T01:28:05.301Z,16.80
2019-04-05T01:30:33.587Z,16.40
2019-04-05T01:33:01.952Z,16.07
2019-04-05T01:35:30.234Z,16.80
2019-04-05T01:37:59.106Z,16.83
2019-04-05T01:40:29.237Z,17.20
2019-04-05T01:42:58.217Z,17.40
2019-04-05T01:45:26.502Z,17.03
2019-04-05T01:47:54.794Z,18.63
2019-04-05T01:50:23.165Z,16.00
2019-04-05T01:52:51.720Z,18.60
2019-04-05T01:55:20.083Z,18.90
2019-04-05T01:57:48.359Z,17.77
2019-04-05T02:00:16.733Z,15.77
2019-04-05T02:02:45.018Z,18.07
2019-04-05T02:05:13.472Z,16.00
2019-04-05T02:07:41.828Z,17.60
2019-04-05T02:10:12.170Z,17.33
2019-04-05T02:12:40.536Z,17.93
2019-04-05T02:15:09.690Z,18.87
2019-04-05T02:17:38.171Z,16.03
2019-04-05T02:20:07.600Z,16.30
2019-04-05T02:22:35.892Z,18.70
2019-04-05T02:25:05.720Z,19.17
2019-04-05T02:27:34.018Z,15.93
2019-04-05T02:30:02.441Z,17.67
2019-04-05T02:32:30.806Z,16.70
2019-04-05T02:34:59.102Z,20.27
2019-04-05T02:37:27.391Z,15.47
2019-04-05T02:39:55.674Z,17.80
2019-04-05T02:42:24.429Z,17.17
2019-04-05T02:44:52.986Z,15.90
2019-04-05T02:47:21.354Z,15.27
2019-04-05T02:49:50.158Z,15.77
2019-04-05T02:52:20.085Z,17.93
2019-04-05T02:54:48.695Z,18.57
2019-04-05T02:57:17.082Z,17.30
2019-04-05T02:59:45.829Z,19.70
2019-04-05T03:02:14.929Z,18.93
2019-04-05T03:04:43.249Z,20.30
2019-04-05T03:07:11.574Z,17.07
2019-04-05T03:09:40.144Z,17.50
2019-04-05T03:12:08.538Z,21.57
2019-04-05T03:14:37.234Z,17.47
2019-04-05T03:17:05.722Z,19.53
2019-04-05T03:19:34.390Z,18.17
2019-04-05T03:22:05.016Z,19.93
2019-04-05T03:24:35.218Z,19.83
2019-04-05T03:27:06.680Z,22.13
2019-04-05T03:29:35.245Z,19.77
2019-04-05T03:32:03.563Z,18.60
2019-04-05T03:34:31.873Z,18.90
2019-04-05T03:37:00.687Z,16.90
2019-04-05T03:39:29.058Z,17.73
2019-04-05T03:41:57.604Z,17.43
2019-04-05T03:44:27.280Z,16.60
2019-04-05T03:46:57.905Z,17.70
2019-04-05T03:49:26.121Z,18.43
2019-04-05T03:51:54.595Z,18.43
2019-04-05T03:54:23.136Z,19.03
2019-04-05T03:56:51.448Z,20.70
2019-04-05T03:59:19.811Z,23.70
2019-04-05T04:01:48.116Z,22.83
2019-04-05T04:04:16.464Z,23.63
2019-04-05T04:06:44.916Z,18.77
2019-04-05T04:09:13.263Z,20.43
2019-04-05T04:11:41.642Z,18.57
2019-04-05T04:14:10.104Z,16.47
2019-04-05T04:16:38.458Z,17.80
2019-04-05T04:19:06.807Z,17.60
2019-04-05T04:21:38.309Z,16.67
2019-04-05T04:24:08.056Z,17.60
2019-04-05T04:26:36.421Z,20.17
2019-04-05T04:29:04.978Z,20.17
2019-04-05T04:31:33.283Z,16.50
2019-04-05T04:34:02.028Z,19.77
2019-04-05T04:36:30.307Z,14.37
2019-04-05T04:38:58.679Z,16.43
2019-04-05T04:41:27.029Z,18.13
2019-04-05T04:43:55.507Z,18.10
2019-04-05T04:46:24.048Z,16.33
2019-04-05T04:48:52.922Z,18.53
2019-04-05T04:51:21.480Z,20.13
2019-04-05T04:53:50.042Z,17.27
2019-04-05T04:56:18.316Z,18.70
2019-04-05T04:58:46.688Z,18.10
2019-04-05T05:01:14.974Z,17.60
2019-04-05T05:03:43.265Z,15.93
2019-04-05T05:06:11.628Z,16.57
2019-04-05T05:08:40.272Z,17.87
2019-04-05T05:11:14.488Z,16.43
2019-04-05T05:13:38.727Z,17.33
2019-04-05T05:16:16.331Z,17.13
2019-04-05T05:18:44.698Z,23.43
2019-04-05T05:21:13.448Z,74.47
2019-04-05T05:23:41.901Z,17.27
2019-04-05T05:26:10.236Z,17.00
2019-04-05T05:28:38.520Z,18.30
2019-04-05T05:31:06.889Z,18.43
2019-04-05T05:33:35.441Z,17.80
2019-04-05T05:36:04.018Z,20.67
2019-04-05T05:38:32.369Z,19.90
2019-04-05T05:41:00.687Z,18.43
2019-04-05T05:43:29.034Z,20.87
2019-04-05T05:45:57.400Z,18.80
2019-04-05T05:48:25.954Z,18.67
2019-04-05T05:50:54.254Z,21.13
2019-04-05T05:53:22.532Z,18.67
2019-04-05T05:55:50.842Z,19.23
2019-04-05T05:58:19.146Z,21.43
2019-04-05T06:00:47.425Z,20.47
2019-04-05T06:03:16.720Z,24.83
2019-04-05T06:05:45.235Z,23.20
2019-04-05T06:08:13.541Z,18.60
2019-04-05T06:10:41.814Z,19.43
2019-04-05T06:13:10.388Z,24.47
2019-04-05T06:15:38.655Z,24.53
2019-04-05T06:18:06.949Z,19.93
2019-04-05T06:20:35.299Z,21.53
2019-04-05T06:23:03.606Z,20.90
2019-04-05T06:25:32.033Z,20.50
2019-04-05T06:28:00.428Z,23.43
2019-04-05T06:30:29.041Z,24.13
2019-04-05T06:32:57.472Z,23.97
2019-04-05T06:35:25.749Z,23.33
2019-04-05T06:37:54.056Z,25.20
2019-04-05T06:40:22.339Z,24.50
2019-04-05T06:42:50.625Z,25.87
2019-04-05T06:45:18.918Z,24.93
2019-04-05T06:47:47.206Z,27.07
2019-04-05T06:50:15.507Z,25.77
2019-04-05T06:52:43.851Z,22.67
2019-04-05T06:55:12.216Z,23.87
2019-04-05T06:57:40.943Z,23.47
2019-04-05T07:00:09.307Z,22.03
2019-04-05T07:02:37.587Z,25.70
2019-04-05T07:05:06.953Z,23.63
2019-04-05T07:07:35.239Z,26.63
2019-04-05T07:10:03.906Z,31.30
2019-04-05T07:12:32.188Z,25.97
2019-04-05T07:15:00.490Z,28.43
2019-04-05T07:17:28.772Z,31.00
2019-04-05T07:19:57.150Z,26.47
2019-04-05T07:22:35.827Z,29.03
2019-04-05T07:24:55.453Z,26.90
2019-04-05T07:27:23.830Z,27.50
2019-04-05T07:29:52.112Z,27.80
2019-04-05T07:32:20.407Z,29.70
2019-04-05T07:34:48.700Z,30.63
2019-04-05T07:37:16.997Z,26.93
2019-04-05T07:39:45.277Z,24.80
2019-04-05T07:42:13.575Z,26.00
2019-04-05T07:44:41.849Z,24.43
2019-04-05T07:47:10.202Z,28.90
2019-04-05T07:49:38.474Z,23.30
2019-04-05T07:52:06.778Z,23.00
2019-04-05T07:54:35.079Z,21.33
2019-04-05T07:57:03.378Z,24.23
2019-04-05T07:59:31.736Z,26.20
2019-04-05T08:02:00.032Z,24.03
2019-04-05T08:04:28.316Z,20.73
2019-04-05T08:06:58.622Z,30.37
2019-04-05T08:09:27.273Z,35.87
2019-04-05T08:11:55.626Z,19.80
2019-04-05T08:14:24.575Z,17.97
2019-04-05T08:16:53.147Z,17.30
2019-04-05T08:19:21.433Z,22.20
2019-04-05T08:21:49.744Z,19.33
2019-04-05T08:24:18.028Z,19.37
2019-04-05T08:26:46.347Z,16.90
2019-04-05T08:29:14.636Z,18.87
2019-04-05T08:31:42.930Z,16.60
2019-04-05T08:34:11.212Z,16.67
2019-04-05T08:36:39.511Z,16.50
2019-04-05T08:39:08.506Z,17.33
2019-04-05T08:41:36.752Z,17.10
2019-04-05T08:44:05.320Z,16.50
2019-04-05T08:46:34.408Z,16.33
2019-04-05T08:49:10.672Z,15.17
2019-04-05T08:51:32.714Z,15.33
2019-04-05T08:54:01.087Z,14.47
2019-04-05T08:56:29.460Z,14.40
2019-04-05T08:58:57.764Z,17.07
2019-04-05T09:01:26.051Z,16.10
2019-04-05T09:03:54.361Z,13.90
2019-04-05T09:06:22.648Z,13.83
2019-04-05T09:08:50.950Z,14.23
2019-04-05T09:11:19.242Z,13.40
2019-04-05T09:13:47.612Z,13.63
2019-04-05T09:16:15.899Z,12.53
2019-04-05T09:18:44.177Z,12.60
2019-04-05T09:21:12.485Z,10.77
2019-04-05T09:23:40.758Z,9.67
2019-04-05T09:26:09.044Z,10.17
2019-04-05T09:28:37.336Z,9.73
2019-04-05T09:31:06.020Z,11.50
2019-04-05T09:33:34.336Z,10.97
2019-04-05T09:36:02.608Z,9.93
2019-04-05T09:38:30.896Z,10.00
2019-04-05T09:40:59.205Z,8.87
2019-04-05T09:43:27.487Z,10.03
2019-04-05T09:45:55.768Z,9.87
2019-04-05T09:48:24.200Z,9.40
2019-04-05T09:50:52.554Z,11.60
2019-04-05T09:53:20.854Z,10.07
2019-04-05T09:55:49.145Z,9.10
2019-04-05T09:58:17.420Z,9.70
2019-04-05T10:00:45.784Z,9.47
2019-04-05T10:03:14.079Z,9.20
2019-04-05T10:05:42.346Z,9.83
2019-04-05T10:08:10.711Z,11.17
2019-04-05T10:10:39.006Z,11.17
2019-04-05T10:13:09.650Z,10.00
2019-04-05T10:15:37.328Z,10.00
2019-04-05T10:18:05.608Z,9.30
2019-04-05T10:20:33.898Z,10.87
2019-04-05T10:23:02.223Z,10.63
2019-04-05T10:25:30.504Z,10.33
2019-04-05T10:27:58.815Z,11.03
2019-04-05T10:30:27.176Z,9.73
2019-04-05T10:32:55.486Z,9.80
2019-04-05T10:35:23.769Z,9.57
2019-04-05T10:37:52.047Z,9.83
2019-04-05T10:40:20.351Z,8.90
2019-04-05T10:42:48.628Z,10.03
2019-04-05T10:45:16.996Z,9.70
2019-04-05T10:47:45.282Z,11.33
2019-04-05T10:50:14.393Z,10.33
2019-04-05T10:52:42.689Z,10.37
2019-04-05T10:55:11.043Z,11.07
2019-04-05T10:57:39.666Z,10.40
2019-04-05T11:00:11.117Z,10.60
2019-04-05T11:02:39.501Z,11.47
2019-04-05T11:05:07.910Z,11.57
2019-04-05T11:07:36.198Z,10.20
2019-04-05T11:10:07.036Z,10.40
2019-04-05T11:12:35.313Z,10.37
2019-04-05T11:15:06.417Z,10.60
2019-04-05T11:17:34.705Z,10.33
2019-04-05T11:20:20.136Z,10.90
2019-04-05T11:22:33.870Z,10.53
2019-04-05T11:25:02.163Z,11.37
2019-04-05T11:27:30.462Z,10.87
2019-04-05T11:29:58.765Z,11.43
2019-04-05T11:32:27.062Z,11.23
2019-04-05T11:34:55.673Z,11.63
2019-04-05T11:37:24.161Z,11.93
2019-04-05T11:39:52.518Z,11.73
2019-04-05T11:42:21.280Z,11.03
2019-04-05T11:44:53.513Z,13.30
2019-04-05T11:47:21.370Z,12.00
2019-04-05T11:49:50.144Z,12.80
2019-04-05T11:52:18.439Z,11.77
2019-04-05T11:54:46.742Z,11.93
2019-04-05T11:57:15.095Z,13.33
2019-04-05T11:59:43.481Z,13.80
2019-04-05T12:02:19.458Z,13.97
2019-04-05T12:04:47.780Z,13.47
2019-04-05T12:07:16.064Z,12.47
2019-04-05T12:09:46.015Z,12.43
2019-04-05T12:12:14.377Z,12.90
2019-04-05T12:14:42.669Z,12.43
2019-04-05T12:17:10.995Z,15.30
2019-04-05T12:19:39.270Z,13.50
2019-04-05T12:22:09.180Z,13.30
2019-04-05T12:24:37.638Z,14.70
2019-04-05T12:27:05.948Z,13.43
2019-04-05T12:29:34.233Z,13.20
2019-04-05T12:32:02.591Z,13.57
2019-04-05T12:34:30.897Z,13.63
2019-04-05T12:36:59.193Z,12.43
2019-04-05T12:39:27.501Z,12.87
2019-04-05T12:41:55.781Z,12.97
2019-04-05T12:44:24.149Z,13.40
2019-04-05T12:46:52.428Z,12.97
2019-04-05T12:49:20.717Z,13.47
2019-04-05T12:51:49.027Z,14.17
2019-04-05T12:54:17.315Z,12.93
2019-04-05T12:56:45.639Z,11.20
2019-04-05T12:59:13.934Z,12.00
2019-04-05T13:01:43.553Z,11.60
2019-04-05T13:04:12.254Z,11.80
2019-04-05T13:06:42.295Z,12.03
2019-04-05T13:09:12.383Z,12.23
2019-04-05T13:11:40.763Z,11.93
2019-04-05T13:14:09.057Z,12.30
2019-04-05T13:16:37.326Z,12.17
2019-04-05T13:19:05.658Z,12.07
2019-04-05T13:21:34.379Z,12.40
2019-04-05T13:24:04.410Z,12.97
2019-04-05T13:26:32.775Z,12.67
2019-04-05T13:29:01.057Z,13.27
2019-04-05T13:31:29.362Z,13.63
2019-04-05T13:33:57.661Z,14.73
2019-04-05T13:36:25.977Z,13.83
2019-04-05T13:38:55.297Z,13.57
2019-04-05T13:41:24.285Z,12.50
2019-04-05T13:43:52.597Z,13.90
2019-04-05T13:46:22.634Z,13.30
2019-04-05T13:48:50.930Z,12.70
2019-04-05T13:51:27.691Z,12.53
2019-04-05T13:53:49.248Z,14.40
2019-04-05T13:56:17.789Z,11.63
2019-04-05T13:58:47.062Z,12.53
2019-04-05T14:01:15.385Z,15.93
2019-04-05T14:03:43.677Z,13.13
2019-04-05T14:06:12.057Z,13.60
2019-04-05T14:08:41.887Z,13.87
2019-04-05T14:11:11.119Z,14.23
2019-04-05T14:13:42.688Z,13.13
2019-04-05T14:16:12.237Z,14.10
2019-04-05T14:18:39.616Z,13.93
2019-04-05T14:21:07.909Z,12.83
2019-04-05T14:23:36.218Z,15.43
2019-04-05T14:26:05.275Z,14.33
2019-04-05T14:28:34.146Z,15.90
2019-04-05T14:31:03.062Z,15.30
2019-04-05T14:33:31.361Z,13.70
2019-04-05T14:35:59.643Z,14.97
2019-04-05T14:38:27.949Z,13.90
2019-04-05T14:40:56.243Z,16.47
2019-04-05T14:43:24.615Z,12.73
2019-04-05T14:45:53.429Z,14.10
2019-04-05T14:48:21.732Z,14.03
2019-04-05T14:50:50.054Z,13.93
2019-04-05T14:53:18.356Z,15.97
2019-04-05T14:55:46.730Z,14.37
2019-04-05T14:58:15.039Z,14.47
2019-04-05T15:00:44.453Z,14.23
2019-04-05T15:03:13.420Z,18.20
2019-04-05T15:05:41.859Z,16.23
2019-04-05T15:08:10.150Z,15.67
2019-04-05T15:10:39.327Z,15.90
2019-04-05T15:13:07.695Z,17.37
2019-04-05T15:15:35.989Z,15.70
2019-04-05T15:18:04.357Z,14.43
2019-04-05T15:20:34.902Z,15.80
2019-04-05T15:23:02.751Z,17.23
2019-04-05T15:25:31.034Z,16.30
2019-04-05T15:27:59.340Z,17.90
2019-04-05T15:30:27.638Z,17.73
2019-04-05T15:32:58.520Z,17.10
2019-04-05T15:35:26.447Z,16.33
2019-04-05T15:37:56.047Z,18.93
2019-04-05T15:40:24.408Z,15.53
2019-04-05T15:42:52.723Z,17.07
2019-04-05T15:45:21.063Z,19.03
2019-04-05T15:47:52.386Z,20.20
2019-04-05T15:50:19.645Z,17.47
2019-04-05T15:52:49.413Z,17.97
2019-04-05T15:55:17.696Z,19.17
2019-04-05T15:57:45.991Z,18.30
2019-04-05T16:00:21.660Z,19.00
2019-04-05T16:02:49.990Z,18.67
2019-04-05T16:05:19.654Z,16.37
2019-04-05T16:07:47.947Z,20.20
2019-04-05T16:10:16.307Z,21.77
2019-04-05T16:12:44.598Z,19.30
2019-04-05T16:15:12.962Z,19.83
2019-04-05T16:17:41.242Z,19.40
2019-04-05T16:20:10.995Z,20.80
2019-04-05T16:22:39.283Z,19.73
2019-04-05T16:25:08.932Z,22.90
2019-04-05T16:27:37.204Z,18.37
2019-04-05T16:30:07.731Z,20.97
2019-04-05T16:32:36.079Z,21.47
2019-04-05T16:35:07.603Z,22.43
2019-04-05T16:37:35.893Z,20.57
2019-04-05T16:40:06.434Z,22.23
2019-04-05T16:42:34.715Z,20.87
2019-04-05T16:45:04.456Z,20.73
2019-04-05T16:47:32.762Z,21.57
2019-04-05T16:50:01.055Z,22.03
2019-04-05T16:52:29.348Z,24.03
2019-04-05T16:54:57.705Z,20.40
2019-04-05T16:57:25.963Z,18.73
2019-04-05T16:59:54.263Z,24.03
2019-04-05T17:02:22.577Z,22.57
2019-04-05T17:04:50.886Z,20.70
2019-04-05T17:07:19.169Z,22.47
2019-04-05T17:09:47.474Z,22.33
2019-04-05T17:12:15.850Z,22.00
2019-04-05T17:14:44.194Z,23.83
2019-04-05T17:17:12.478Z,22.60
2019-04-05T17:19:40.776Z,24.93
2019-04-05T17:22:09.057Z,23.27
2019-04-05T17:24:37.460Z,26.80
2019-04-05T17:27:05.728Z,24.60
2019-04-05T17:29:34.026Z,26.10
2019-04-05T17:32:02.319Z,23.17
2019-04-05T17:34:30.617Z,22.87
2019-04-05T17:36:58.909Z,23.23
2019-04-05T17:39:27.198Z,24.87
2019-04-05T17:41:55.580Z,24.40
2019-04-05T17:44:23.880Z,23.57
2019-04-05T17:46:52.170Z,27.50
2019-04-05T17:49:20.455Z,22.03
2019-04-05T17:51:48.815Z,24.67
2019-04-05T17:54:17.103Z,23.87
2019-04-05T17:56:45.780Z,22.87
2019-04-05T17:59:14.072Z,23.70
2019-04-05T18:01:42.187Z,25.93
2019-04-05T18:04:10.532Z,25.83
2019-04-05T18:06:38.907Z,26.20
2019-04-05T18:09:07.676Z,25.43
2019-04-05T18:11:35.991Z,26.27
2019-04-05T18:14:04.272Z,25.43
2019-04-05T18:16:32.557Z,27.63
2019-04-05T18:19:00.857Z,28.07
2019-04-05T18:21:29.150Z,29.30
2019-04-05T18:23:57.444Z,30.20
2019-04-05T18:26:25.729Z,25.87
2019-04-05T18:28:55.976Z,24.33
2019-04-05T18:31:24.326Z,25.23
2019-04-05T18:33:52.634Z,26.93
2019-04-05T18:36:20.988Z,26.10
2019-04-05T18:38:49.293Z,27.10
2019-04-05T18:41:17.650Z,25.20
2019-04-05T18:43:45.886Z,29.90
2019-04-05T18:46:14.156Z,26.83
2019-04-05T18:48:42.483Z,31.00
2019-04-05T18:51:10.748Z,27.83
2019-04-05T18:53:39.054Z,27.20
2019-04-05T18:56:07.326Z,30.77
2019-04-05T18:58:35.625Z,28.93
2019-04-05T19:01:03.917Z,28.03
2019-04-05T19:03:32.210Z,32.33
2019-04-05T19:06:00.515Z,26.53
2019-04-05T19:08:39.007Z,26.33
2019-04-05T19:10:58.822Z,26.97
2019-04-05T19:13:27.109Z,27.27
2019-04-05T19:15:55.401Z,30.40
2019-04-05T19:18:23.804Z,29.10
2019-04-05T19:20:52.061Z,27.30
2019-04-05T19:23:20.341Z,28.67
2019-04-05T19:25:48.647Z,26.43
2019-04-05T19:28:16.929Z,28.67
2019-04-05T19:50:56.207Z,29.40
2019-04-05T19:53:24.500Z,29.17
2019-04-05T19:55:53.049Z,26.03
2019-04-05T19:58:21.339Z,29.50
2019-04-05T20:00:49.636Z,29.10
2019-04-05T20:03:21.477Z,28.33
2019-04-05T20:05:49.864Z,30.13
2019-04-05T20:08:18.229Z,28.60
2019-04-05T20:10:46.573Z,27.13
2019-04-05T20:13:14.909Z,25.93
2019-04-05T20:15:43.296Z,27.27
2019-04-05T20:18:11.661Z,27.43
2019-04-05T20:20:40.025Z,28.50
2019-04-05T20:23:08.353Z,33.37
2019-04-05T20:25:36.705Z,27.50
2019-04-05T20:28:05.211Z,27.70
2019-04-05T20:30:33.623Z,31.00
2019-04-05T20:33:02.025Z,29.53
2019-04-05T20:35:30.526Z,29.43
2019-04-05T20:37:58.876Z,30.07
2019-04-05T20:40:27.357Z,25.80
2019-04-05T20:42:55.825Z,27.37
2019-04-05T20:45:24.273Z,29.20
2019-04-05T20:47:52.708Z,27.00
2019-04-05T20:50:20.974Z,25.27
2019-04-05T20:52:49.266Z,25.87
2019-04-05T20:55:17.561Z,27.70
2019-04-05T20:57:45.863Z,26.47
2019-04-05T21:00:14.281Z,27.03
2019-04-05T21:02:42.578Z,27.27
2019-04-05T21:05:10.937Z,24.87
2019-04-05T21:07:39.244Z,26.07
2019-04-05T21:10:08.222Z,28.17
2019-04-05T21:12:36.539Z,26.40
2019-04-05T21:15:06.601Z,25.07
2019-04-05T21:17:34.899Z,23.63
2019-04-05T21:20:03.185Z,29.00
2019-04-05T21:22:31.473Z,27.00
2019-04-05T21:24:59.786Z,24.47
2019-04-05T21:27:28.071Z,25.97
2019-04-05T21:29:56.370Z,24.70
2019-04-05T21:32:24.698Z,23.40
2019-04-05T21:34:53.047Z,25.77
2019-04-05T21:37:21.506Z,25.50
2019-04-05T21:39:49.841Z,23.93
2019-04-05T21:42:18.139Z,28.00
2019-04-05T21:44:46.597Z,24.83
2019-04-05T21:47:14.788Z,27.87
2019-04-05T21:49:43.103Z,27.40
2019-04-05T21:52:11.377Z,25.80
2019-04-05T21:54:47.420Z,26.77
2019-04-05T21:57:09.743Z,23.97
2019-04-05T21:59:37.993Z,22.53
2019-04-05T22:02:06.516Z,29.73
2019-04-05T22:04:34.836Z,25.93
2019-04-05T22:07:03.116Z,28.83
2019-04-05T22:09:31.390Z,25.17
2019-04-05T22:11:59.892Z,26.00
2019-04-05T22:14:28.196Z,25.07
2019-04-05T22:16:56.488Z,25.43
2019-04-05T22:19:24.768Z,23.57
2019-04-05T22:21:53.080Z,23.67
2019-04-05T22:24:21.363Z,25.80
2019-04-05T22:26:49.663Z,27.13
2019-04-05T22:29:17.952Z,26.40
2019-04-05T22:31:46.604Z,23.97
2019-04-05T22:34:14.956Z,25.27
2019-04-05T22:36:43.189Z,25.83
2019-04-05T22:39:11.492Z,22.30
2019-04-05T22:41:39.854Z,23.83
2019-04-05T22:44:08.137Z,25.47
2019-04-05T22:46:36.482Z,25.77
2019-04-05T22:49:04.769Z,22.20
2019-04-05T22:51:33.072Z,19.30
2019-04-05T22:54:01.369Z,18.43
2019-04-05T22:56:29.681Z,19.47
2019-04-05T22:58:57.978Z,19.70
2019-04-05T23:01:26.274Z,19.80
2019-04-05T23:03:54.559Z,19.10
2019-04-05T23:06:22.883Z,21.20
2019-04-05T23:08:51.169Z,18.73
2019-04-05T23:11:19.556Z,20.77
2019-04-05T23:13:47.855Z,19.73
2019-04-05T23:16:16.138Z,18.07
2019-04-05T23:18:44.442Z,23.37
2019-04-05T23:21:12.730Z,17.93
2019-04-05T23:23:41.034Z,19.37
2019-04-05T23:26:09.318Z,20.07
2019-04-05T23:28:37.610Z,18.57
2019-04-05T23:31:05.901Z,19.03
2019-04-05T23:33:34.199Z,20.20
2019-04-05T23:36:02.483Z,17.63
2019-04-05T23:38:31.031Z,18.97
2019-04-05T23:40:59.309Z,18.47
2019-04-05T23:43:27.614Z,23.00
2019-04-05T23:45:55.902Z,16.40
2019-04-05T23:48:24.202Z,18.07
2019-04-05T23:50:52.481Z,19.37
2019-04-05T23:53:20.773Z,17.43
2019-04-05T23:55:49.054Z,17.63
2019-04-05T23:58:17.388Z,19.67
